MKC weather

Charles B. Wheeler Downtown Airport
Kansas City, Missouri, United States

Public forecast

Using degrees Fahrenheit for public forecast. Weather courtesy of forecast.io.

METAR (pilot weather report)

Retrieved 2019/05/21 11:54 UTC (44 minutes ago):

KMKC 211154Z AUTO 09011G19KT 10SM -RA OVC008 11/09 A2967 RMK AO2 PK WND 08026/1134 SLP047 P0006 60024 70185 T01110089 10117 20106 56048

TAF (pilot weather forecast)

Retrieved 2019/05/21 12:22 UTC (16 minutes ago):

TAF KMKC 211120Z 2112/2212 13011G31KT P6SM -RA OVC008 TEMPO 2113/2115 1SM TSRA BR OVC004CB FM211600 13018G30KT 6SM SHRA BR OVC011 FM212200 14017G28KT P6SM VCTS BKN050CB FM220100 18013KT P6SM FEW120 WS020/21045KT